createdAt,value
2023-04-28T00:00:04.647Z,50.88
2023-04-28T00:02:32.998Z,51.40
2023-04-28T00:05:00.888Z,50.98
2023-04-28T00:07:28.740Z,50.52
2023-04-28T00:09:57.069Z,50.58
2023-04-28T00:12:24.926Z,50.70
2023-04-28T00:14:52.674Z,50.57
2023-04-28T00:17:22.208Z,50.88
2023-04-28T00:19:51.500Z,50.77
2023-04-28T00:22:19.357Z,50.52
2023-04-28T00:24:47.254Z,50.86
2023-04-28T00:27:15.297Z,50.83
2023-04-28T00:29:43.128Z,50.43
2023-04-28T00:32:11.069Z,50.78
2023-04-28T00:34:40.538Z,50.55
2023-04-28T00:37:08.410Z,50.51
2023-04-28T00:39:36.097Z,50.87
2023-04-28T00:42:04.895Z,50.28
2023-04-28T00:44:32.864Z,50.71
2023-04-28T00:47:00.802Z,50.08
2023-04-28T00:49:28.694Z,50.83
2023-04-28T00:51:58.717Z,49.77
2023-04-28T00:54:27.077Z,49.52
2023-04-28T00:56:56.387Z,49.57
2023-04-28T00:59:24.103Z,49.11
2023-04-28T01:01:52.062Z,48.47
2023-04-28T01:04:22.305Z,48.75
2023-04-28T01:06:52.042Z,48.44
2023-04-28T01:09:21.410Z,48.59
2023-04-28T01:11:51.702Z,48.35
2023-04-28T01:14:33.454Z,48.88
2023-04-28T01:17:01.760Z,48.92
2023-04-28T01:19:29.781Z,48.80
2023-04-28T01:21:58.155Z,48.66
2023-04-28T01:24:28.243Z,48.89
2023-04-28T01:26:59.320Z,48.74
2023-04-28T01:29:27.827Z,49.01
2023-04-28T01:31:55.805Z,48.74
2023-04-28T01:34:23.715Z,48.47
2023-04-28T01:36:51.885Z,48.85
2023-04-28T01:39:20.353Z,48.47
2023-04-28T01:41:50.116Z,49.15
2023-04-28T01:44:18.741Z,49.28
2023-04-28T01:46:49.943Z,48.72
2023-04-28T01:49:18.304Z,49.30
2023-04-28T01:51:46.384Z,49.24
2023-04-28T01:54:15.350Z,49.54
2023-04-28T01:56:44.043Z,49.52
2023-04-28T01:59:16.200Z,49.65
2023-04-28T02:01:44.022Z,50.19
2023-04-28T02:04:11.937Z,49.71
2023-04-28T02:06:40.410Z,49.96
2023-04-28T02:09:08.332Z,50.19
2023-04-28T02:11:36.171Z,50.10
2023-04-28T02:14:04.292Z,50.38
2023-04-28T02:16:34.297Z,50.50
2023-04-28T02:19:02.089Z,50.63
2023-04-28T02:21:29.883Z,50.97
2023-04-28T02:23:58.182Z,51.09
2023-04-28T02:26:26.306Z,51.58
2023-04-28T02:28:54.378Z,52.53
2023-04-28T02:31:22.269Z,52.45
2023-04-28T02:33:51.872Z,52.77
2023-04-28T02:36:20.069Z,53.20
2023-04-28T02:38:48.235Z,53.67
2023-04-28T02:41:16.183Z,53.74
2023-04-28T02:43:44.170Z,53.79
2023-04-28T02:46:12.290Z,53.82
2023-04-28T02:48:40.784Z,54.48
2023-04-28T02:51:10.812Z,54.50
2023-04-28T02:53:39.205Z,53.92
2023-04-28T02:56:07.557Z,54.58
2023-04-28T02:58:35.686Z,54.63
2023-04-28T03:01:03.547Z,54.61
2023-04-28T03:03:31.488Z,54.29
2023-04-28T03:05:59.348Z,54.64
2023-04-28T03:08:28.584Z,54.47
2023-04-28T03:10:56.726Z,54.71
2023-04-28T03:13:25.477Z,54.77
2023-04-28T03:15:53.695Z,55.02
2023-04-28T03:18:22.477Z,54.72
2023-04-28T03:20:50.424Z,54.40
2023-04-28T03:23:18.626Z,54.47
2023-04-28T03:25:48.096Z,54.48
2023-04-28T03:28:16.270Z,54.39
2023-04-28T03:30:44.123Z,54.17
2023-04-28T03:33:11.879Z,53.96
2023-04-28T03:35:40.097Z,54.05
2023-04-28T03:38:08.046Z,54.21
2023-04-28T03:40:36.937Z,54.27
2023-04-28T03:43:28.678Z,54.39
2023-04-28T03:46:12.032Z,54.22
2023-04-28T03:48:39.772Z,54.47
2023-04-28T03:51:07.544Z,54.11
2023-04-28T03:53:35.342Z,54.23
2023-04-28T03:56:03.276Z,53.80
2023-04-28T03:58:32.423Z,53.90
2023-04-28T04:01:02.195Z,54.29
2023-04-28T04:03:30.137Z,53.96
2023-04-28T04:05:58.305Z,53.97
2023-04-28T04:08:26.451Z,54.74
2023-04-28T04:10:54.910Z,54.41
2023-04-28T04:13:23.194Z,54.28
2023-04-28T04:15:53.661Z,54.31
2023-04-28T04:18:24.060Z,54.12
2023-04-28T04:21:21.105Z,54.76
2023-04-28T04:23:51.243Z,54.75
2023-04-28T04:26:19.504Z,54.84
2023-04-28T04:28:49.841Z,54.20
2023-04-28T04:31:22.780Z,54.07
2023-04-28T04:33:52.136Z,54.34
2023-04-28T04:36:21.630Z,54.15
2023-04-28T04:38:52.649Z,54.64
2023-04-28T04:41:22.964Z,54.11
2023-04-28T04:43:57.011Z,54.47
2023-04-28T04:46:31.870Z,54.14
2023-04-28T04:48:59.999Z,54.73
2023-04-28T04:51:28.053Z,54.26
2023-04-28T04:53:56.564Z,54.21
2023-04-28T04:56:24.538Z,54.33
2023-04-28T04:58:53.357Z,54.38
2023-04-28T05:01:35.912Z,54.46
2023-04-28T05:04:03.842Z,53.98
2023-04-28T05:06:32.374Z,53.86
2023-04-28T05:09:00.183Z,54.16
2023-04-28T05:11:28.262Z,53.91
2023-04-28T05:13:56.451Z,54.08
2023-04-28T05:16:24.984Z,54.53
2023-04-28T05:19:03.627Z,54.16
2023-04-28T05:21:32.685Z,53.96
2023-04-28T05:24:00.987Z,54.09
2023-04-28T05:26:29.398Z,54.91
2023-04-28T05:29:01.777Z,54.18
2023-04-28T05:31:30.890Z,54.12
2023-04-28T05:33:59.824Z,54.48
2023-04-28T05:36:29.342Z,54.83
2023-04-28T05:38:57.804Z,54.73
2023-04-28T05:41:25.668Z,53.97
2023-04-28T05:43:53.579Z,54.08
2023-04-28T05:46:30.196Z,54.25
2023-04-28T05:49:00.140Z,53.94
2023-04-28T05:51:34.036Z,54.70
2023-04-28T05:54:03.054Z,54.53
2023-04-28T05:56:31.497Z,54.23
2023-04-28T05:59:04.019Z,54.26
2023-04-28T06:01:31.954Z,53.49
2023-04-28T06:03:59.923Z,53.93
2023-04-28T06:06:29.029Z,53.65
2023-04-28T06:08:58.273Z,54.00
2023-04-28T06:11:27.312Z,53.56
2023-04-28T06:13:55.424Z,53.68
2023-04-28T06:16:23.588Z,53.66
2023-04-28T06:18:53.245Z,53.28
2023-04-28T06:21:22.310Z,53.21
2023-04-28T06:23:50.419Z,52.52
2023-04-28T06:26:20.101Z,52.49
2023-04-28T06:28:47.946Z,52.82
2023-04-28T06:31:16.388Z,52.40
2023-04-28T06:33:44.226Z,52.06
2023-04-28T06:36:15.567Z,52.06
2023-04-28T06:38:44.510Z,52.11
2023-04-28T06:41:12.627Z,51.92
2023-04-28T06:43:43.814Z,52.12
2023-04-28T06:46:15.671Z,51.54
2023-04-28T06:48:44.007Z,51.75
2023-04-28T06:51:11.759Z,51.36
2023-04-28T06:53:39.766Z,51.93
2023-04-28T06:56:11.169Z,51.84
2023-04-28T06:58:39.516Z,51.38
2023-04-28T07:01:08.622Z,51.83
2023-04-28T07:03:36.454Z,51.87
2023-04-28T07:06:04.973Z,51.79
2023-04-28T07:08:33.158Z,51.84
2023-04-28T07:11:04.228Z,51.46
2023-04-28T07:13:32.040Z,51.25
2023-04-28T07:16:00.277Z,51.42
2023-04-28T07:18:29.954Z,52.00
2023-04-28T07:20:58.093Z,51.26
2023-04-28T07:23:26.432Z,51.86
2023-04-28T07:25:55.241Z,51.28
2023-04-28T07:28:23.732Z,51.34
2023-04-28T07:30:52.037Z,51.32
2023-04-28T07:33:20.020Z,50.87
2023-04-28T07:35:49.606Z,51.11
2023-04-28T07:38:18.487Z,50.82
2023-04-28T07:40:46.572Z,50.45
2023-04-28T07:43:14.736Z,51.24
2023-04-28T07:45:45.655Z,50.72
2023-04-28T07:48:13.691Z,51.40
2023-04-28T07:50:41.615Z,51.17
2023-04-28T07:53:10.878Z,51.10
2023-04-28T07:55:38.847Z,51.42
2023-04-28T07:58:06.615Z,50.99
2023-04-28T08:00:34.431Z,51.09
2023-04-28T08:03:02.530Z,51.47
2023-04-28T08:05:30.564Z,51.26
2023-04-28T08:07:58.409Z,51.35
2023-04-28T08:10:27.716Z,51.45
2023-04-28T08:12:55.515Z,50.63
2023-04-28T08:15:23.668Z,50.21
2023-04-28T08:17:51.634Z,50.51
2023-04-28T08:20:24.474Z,50.78
2023-04-28T08:22:52.883Z,51.04
2023-04-28T08:25:20.727Z,50.91
2023-04-28T08:27:50.019Z,50.65
2023-04-28T08:30:17.946Z,51.77
2023-04-28T08:32:46.063Z,51.32
2023-04-28T08:35:15.450Z,51.37
2023-04-28T08:37:43.270Z,51.56
2023-04-28T08:40:11.566Z,51.73
2023-04-28T08:42:39.811Z,52.14
2023-04-28T08:45:14.648Z,52.00
2023-04-28T08:47:46.111Z,51.54
2023-04-28T08:50:17.994Z,51.52
2023-04-28T08:52:45.914Z,51.36
2023-04-28T08:55:14.455Z,51.71
2023-04-28T08:57:45.785Z,51.63
2023-04-28T09:00:16.002Z,52.34
2023-04-28T09:02:44.260Z,52.52
2023-04-28T09:05:13.804Z,53.66
2023-04-28T09:07:42.638Z,54.36
2023-04-28T09:10:19.148Z,55.05
2023-04-28T09:12:47.790Z,54.69
2023-04-28T09:15:33.947Z,54.64
2023-04-28T09:18:03.385Z,54.89
2023-04-28T09:20:32.649Z,55.31
2023-04-28T09:23:15.271Z,55.55
2023-04-28T09:25:57.279Z,55.30
2023-04-28T09:28:25.267Z,55.37
2023-04-28T09:30:54.646Z,55.56
2023-04-28T09:33:22.766Z,55.48
2023-04-28T09:35:50.787Z,55.07
2023-04-28T09:38:20.614Z,54.85
2023-04-28T09:40:57.009Z,54.58
2023-04-28T09:43:26.706Z,54.60
2023-04-28T09:45:56.805Z,54.27
2023-04-28T09:48:33.676Z,54.29
2023-04-28T09:51:02.889Z,54.47
2023-04-28T09:53:31.859Z,54.97
2023-04-28T09:56:02.516Z,54.45
2023-04-28T09:58:32.919Z,54.54
2023-04-28T10:01:03.141Z,53.98
2023-04-28T10:03:32.242Z,53.80
2023-04-28T10:06:00.534Z,53.13
2023-04-28T10:08:28.603Z,53.33
2023-04-28T10:10:57.808Z,53.40
2023-04-28T10:13:26.021Z,52.84
2023-04-28T10:15:55.702Z,52.64
2023-04-28T10:18:25.802Z,52.49
2023-04-28T10:20:58.750Z,52.42
2023-04-28T10:23:52.848Z,53.10
2023-04-28T10:26:21.911Z,52.80
2023-04-28T10:28:51.109Z,52.78
2023-04-28T10:31:21.167Z,53.04
2023-04-28T10:33:50.866Z,53.22
2023-04-28T10:36:48.676Z,53.02
2023-04-28T10:39:16.851Z,52.74
2023-04-28T10:41:46.558Z,52.31
2023-04-28T10:44:45.436Z,52.17
2023-04-28T10:47:13.506Z,52.70
2023-04-28T10:50:10.538Z,52.35
2023-04-28T10:53:00.531Z,52.32
2023-04-28T10:55:32.907Z,52.33
2023-04-28T10:58:32.581Z,52.98
2023-04-28T11:01:28.394Z,53.21
2023-04-28T11:04:08.365Z,53.92
2023-04-28T11:06:40.640Z,54.68
2023-04-28T11:09:38.807Z,55.33
2023-04-28T11:12:10.794Z,55.95
2023-04-28T11:14:40.720Z,56.58
2023-04-28T11:17:13.094Z,57.00
2023-04-28T11:19:42.661Z,57.52
2023-04-28T11:22:18.254Z,57.86
2023-04-28T11:24:57.712Z,58.41
2023-04-28T11:27:25.928Z,58.58
2023-04-28T11:29:54.272Z,58.70
2023-04-28T11:32:29.015Z,59.13
2023-04-28T11:34:57.484Z,59.15
2023-04-28T11:37:27.340Z,59.40
2023-04-28T11:39:55.607Z,59.40
2023-04-28T11:42:25.914Z,60.23
2023-04-28T11:44:55.438Z,60.18
2023-04-28T11:47:31.389Z,60.60
2023-04-28T11:49:59.541Z,60.01
2023-04-28T11:52:28.721Z,60.34
2023-04-28T11:54:57.893Z,60.55
2023-04-28T11:57:26.626Z,60.68
2023-04-28T11:59:54.589Z,60.91
2023-04-28T12:02:28.425Z,60.98
2023-04-28T12:04:56.681Z,61.09
2023-04-28T12:07:25.102Z,61.02
2023-04-28T12:10:13.476Z,61.09
2023-04-28T12:12:50.775Z,60.98
2023-04-28T12:15:22.378Z,60.83
2023-04-28T12:17:51.767Z,60.83
2023-04-28T12:20:36.499Z,60.88
2023-04-28T12:23:05.439Z,60.50
2023-04-28T12:25:35.989Z,60.49
2023-04-28T12:28:05.526Z,60.65
2023-04-28T12:30:35.051Z,60.48
2023-04-28T12:33:03.275Z,60.28
2023-04-28T12:35:31.440Z,60.24
2023-04-28T12:37:59.506Z,60.33
2023-04-28T12:40:27.450Z,60.51
2023-04-28T12:42:56.951Z,60.75
2023-04-28T12:45:24.906Z,60.76
2023-04-28T12:47:52.657Z,60.80
2023-04-28T12:50:20.719Z,61.14
2023-04-28T12:52:48.480Z,61.19
2023-04-28T12:55:16.528Z,61.54
2023-04-28T12:57:44.304Z,61.52
2023-04-28T13:00:16.301Z,62.20
2023-04-28T13:02:45.395Z,62.48
2023-04-28T13:05:14.451Z,63.02
2023-04-28T13:07:42.377Z,63.39
2023-04-28T13:10:10.822Z,64.09
2023-04-28T13:12:38.815Z,64.31
2023-04-28T13:15:07.962Z,64.38
2023-04-28T13:17:37.153Z,64.20
2023-04-28T13:20:06.737Z,64.32
2023-04-28T13:22:34.747Z,64.44
2023-04-28T13:25:02.812Z,64.44
2023-04-28T13:27:31.303Z,64.65
2023-04-28T13:29:59.320Z,64.78
2023-04-28T13:32:28.134Z,64.78
2023-04-28T13:34:57.806Z,64.61
2023-04-28T13:37:25.638Z,64.74
2023-04-28T13:39:53.402Z,64.68
2023-04-28T13:42:21.642Z,64.54
2023-04-28T13:44:49.540Z,64.49
2023-04-28T13:47:17.322Z,64.85
2023-04-28T13:49:45.064Z,65.05
2023-04-28T13:52:14.166Z,65.18
2023-04-28T13:54:43.034Z,64.96
2023-04-28T13:57:13.442Z,65.28
2023-04-28T13:59:41.355Z,65.46
2023-04-28T14:02:09.593Z,65.63
2023-04-28T14:04:37.735Z,66.06
2023-04-28T14:07:05.697Z,66.16
2023-04-28T14:09:34.798Z,66.32
2023-04-28T14:12:02.764Z,66.48
2023-04-28T14:14:30.928Z,66.47
2023-04-28T14:16:58.918Z,66.55
2023-04-28T14:19:28.173Z,66.85
2023-04-28T14:21:56.412Z,66.90
2023-04-28T14:24:24.490Z,66.85
2023-04-28T14:26:53.674Z,66.92
2023-04-28T14:29:21.551Z,67.17
2023-04-28T14:31:49.386Z,67.33
2023-04-28T14:34:17.147Z,67.15
2023-04-28T14:36:45.003Z,67.75
2023-04-28T14:39:12.827Z,67.95
2023-04-28T14:41:41.098Z,68.19
2023-04-28T14:44:10.547Z,68.15
2023-04-28T14:46:38.654Z,68.03
2023-04-28T14:49:09.205Z,68.37
2023-04-28T14:51:37.004Z,68.23
2023-04-28T14:54:05.470Z,68.12
2023-04-28T14:56:33.987Z,68.61
2023-04-28T14:59:01.789Z,68.75
2023-04-28T15:01:32.065Z,69.07
2023-04-28T15:04:00.240Z,69.19
2023-04-28T15:06:28.213Z,69.37
2023-04-28T15:08:56.485Z,69.92
2023-04-28T15:11:24.743Z,69.51
2023-04-28T15:13:52.573Z,69.46
2023-04-28T15:16:20.932Z,69.47
2023-04-28T15:18:50.307Z,69.83
2023-04-28T15:21:18.138Z,69.89
2023-04-28T15:23:46.247Z,70.11
2023-04-28T15:26:13.986Z,70.20
2023-04-28T15:28:41.938Z,70.06
2023-04-28T15:31:09.923Z,70.23
2023-04-28T15:33:38.193Z,70.14
2023-04-28T15:36:08.579Z,70.40
2023-04-28T15:38:36.764Z,70.44
2023-04-28T15:41:05.482Z,70.56
2023-04-28T15:43:33.188Z,70.53
2023-04-28T15:46:02.270Z,70.45
2023-04-28T15:48:30.124Z,70.53
2023-04-28T15:50:58.684Z,70.77
2023-04-28T15:53:27.966Z,70.98
2023-04-28T15:55:56.000Z,70.86
2023-04-28T15:58:26.742Z,70.92
2023-04-28T16:00:54.604Z,71.05
2023-04-28T16:03:22.662Z,70.87
2023-04-28T16:05:51.100Z,70.62
2023-04-28T16:08:19.556Z,71.09
2023-04-28T16:10:48.659Z,70.72
2023-04-28T16:13:16.869Z,70.95
2023-04-28T16:15:45.859Z,70.77
2023-04-28T16:18:13.936Z,71.05
2023-04-28T16:20:42.156Z,70.97
2023-04-28T16:23:12.694Z,71.09
2023-04-28T16:25:44.766Z,71.16
2023-04-28T16:28:13.981Z,70.85
2023-04-28T16:30:41.899Z,71.00
2023-04-28T16:33:09.903Z,70.92
2023-04-28T16:35:38.163Z,70.98
2023-04-28T16:38:06.052Z,70.77
2023-04-28T16:40:33.915Z,70.79
2023-04-28T16:43:02.238Z,70.81
2023-04-28T16:45:31.895Z,70.76
2023-04-28T16:47:59.843Z,70.76
2023-04-28T16:50:27.949Z,70.50
2023-04-28T16:52:55.855Z,70.70
2023-04-28T16:55:24.158Z,70.55
2023-04-28T16:57:52.164Z,70.48
2023-04-28T17:00:21.378Z,70.46
2023-04-28T17:02:50.744Z,70.46
2023-04-28T17:05:18.862Z,70.36
2023-04-28T17:07:46.606Z,70.46
2023-04-28T17:10:14.517Z,70.09
2023-04-28T17:12:45.201Z,70.25
2023-04-28T17:15:17.174Z,70.10
2023-04-28T17:17:45.483Z,70.00
2023-04-28T17:20:20.091Z,69.92
2023-04-28T17:22:48.682Z,69.72
2023-04-28T17:25:17.551Z,69.92
2023-04-28T17:27:45.430Z,69.75
2023-04-28T17:30:13.622Z,69.90
2023-04-28T17:32:41.562Z,70.11
2023-04-28T17:35:10.415Z,69.85
2023-04-28T17:37:39.747Z,69.89
2023-04-28T17:40:09.059Z,70.06
2023-04-28T17:42:37.141Z,70.25
2023-04-28T17:45:07.395Z,70.20
2023-04-28T17:47:35.209Z,70.64
2023-04-28T17:50:03.935Z,70.45
2023-04-28T17:52:32.367Z,70.02
2023-04-28T17:55:01.487Z,69.71
2023-04-28T17:57:29.503Z,70.07
2023-04-28T17:59:57.990Z,69.90
2023-04-28T18:02:26.655Z,69.80
2023-04-28T18:04:54.668Z,69.88
2023-04-28T18:07:22.631Z,70.13
2023-04-28T18:09:50.515Z,69.72
2023-04-28T18:12:19.927Z,69.58
2023-04-28T18:14:48.038Z,69.69
2023-04-28T18:17:15.916Z,69.69
2023-04-28T18:19:43.823Z,69.62
2023-04-28T18:22:12.029Z,69.57
2023-04-28T18:24:39.904Z,69.47
2023-04-28T18:27:07.648Z,69.60
2023-04-28T18:29:36.806Z,69.67
2023-04-28T18:32:05.146Z,69.58
2023-04-28T18:34:33.205Z,69.83
2023-04-28T18:37:01.048Z,69.95
2023-04-28T18:39:29.256Z,70.39
2023-04-28T18:41:58.641Z,70.65
2023-04-28T18:44:26.506Z,70.89
2023-04-28T18:46:56.065Z,70.56
2023-04-28T18:49:24.968Z,70.76
2023-04-28T18:51:52.727Z,70.79
2023-04-28T18:54:20.641Z,70.83
2023-04-28T18:56:49.023Z,70.67
2023-04-28T18:59:16.990Z,70.84
2023-04-28T19:01:44.838Z,70.57
2023-04-28T19:04:14.673Z,70.47
2023-04-28T19:06:44.019Z,70.52
2023-04-28T19:09:12.085Z,70.63
2023-04-28T19:11:40.643Z,70.50
2023-04-28T19:14:08.868Z,70.57
2023-04-28T19:16:36.765Z,70.61
2023-04-28T19:19:04.782Z,70.60
2023-04-28T19:21:43.145Z,70.72
2023-04-28T19:24:11.835Z,70.21
2023-04-28T19:26:40.716Z,70.54
2023-04-28T19:29:08.496Z,70.00
2023-04-28T19:31:36.275Z,69.86
2023-04-28T19:34:04.444Z,69.93
2023-04-28T19:36:32.803Z,69.87
2023-04-28T19:39:02.090Z,70.11
2023-04-28T19:41:29.966Z,69.96
2023-04-28T19:43:58.557Z,70.02
2023-04-28T19:46:29.577Z,69.97
2023-04-28T19:49:00.421Z,69.88
2023-04-28T19:51:36.850Z,70.09
2023-04-28T19:54:06.130Z,69.76
2023-04-28T19:56:35.164Z,69.90
2023-04-28T19:59:03.552Z,69.87
2023-04-28T20:01:31.448Z,69.85
2023-04-28T20:04:00.458Z,69.93
2023-04-28T20:06:28.781Z,70.11
2023-04-28T20:08:56.697Z,70.04
2023-04-28T20:11:26.416Z,70.13
2023-04-28T20:13:54.544Z,69.83
2023-04-28T20:16:25.704Z,69.58
2023-04-28T20:18:53.845Z,69.56
2023-04-28T20:21:21.747Z,69.57
2023-04-28T20:23:50.655Z,69.58
2023-04-28T20:26:18.639Z,69.22
2023-04-28T20:28:48.650Z,69.48
2023-04-28T20:31:16.714Z,69.11
2023-04-28T20:33:44.451Z,68.94
2023-04-28T20:36:13.966Z,69.32
2023-04-28T20:38:42.427Z,69.10
2023-04-28T20:41:10.409Z,68.74
2023-04-28T20:43:38.838Z,68.92
2023-04-28T20:46:12.967Z,68.76
2023-04-28T20:48:41.160Z,68.98
2023-04-28T20:51:10.815Z,69.37
2023-04-28T20:53:39.647Z,69.35
2023-04-28T20:56:08.454Z,69.18
2023-04-28T20:58:36.380Z,69.19
2023-04-28T21:01:04.301Z,69.37
2023-04-28T21:03:33.556Z,69.39
2023-04-28T21:06:01.334Z,69.53
2023-04-28T21:08:30.135Z,69.61
2023-04-28T21:10:58.084Z,69.60
2023-04-28T21:13:25.947Z,69.54
2023-04-28T21:15:56.033Z,69.81
2023-04-28T21:18:24.024Z,69.77
2023-04-28T21:20:54.735Z,69.65
2023-04-28T21:23:22.756Z,69.58
2023-04-28T21:25:50.806Z,69.64
2023-04-28T21:28:18.658Z,69.40
2023-04-28T21:30:46.405Z,70.01
2023-04-28T21:33:14.253Z,69.75
2023-04-28T21:35:42.146Z,70.03
2023-04-28T21:38:12.228Z,69.67
2023-04-28T21:40:40.029Z,69.75
2023-04-28T21:43:08.259Z,69.29
2023-04-28T21:45:36.228Z,69.44
2023-04-28T21:48:04.127Z,69.36
2023-04-28T21:50:31.969Z,68.97
2023-04-28T21:52:59.751Z,69.03
2023-04-28T21:55:28.889Z,69.09
2023-04-28T21:57:58.800Z,68.88
2023-04-28T22:00:28.195Z,68.86
2023-04-28T22:02:58.396Z,68.98
2023-04-28T22:05:26.302Z,68.81
2023-04-28T22:07:54.054Z,68.71
2023-04-28T22:10:22.762Z,68.81
2023-04-28T22:12:51.844Z,68.68
2023-04-28T22:15:19.725Z,68.81
2023-04-28T22:17:47.728Z,68.79
2023-04-28T22:20:15.573Z,68.72
2023-04-28T22:22:43.414Z,69.06
2023-04-28T22:25:11.610Z,69.19
2023-04-28T22:27:39.994Z,68.67
2023-04-28T22:30:10.820Z,69.00
2023-04-28T22:32:38.595Z,68.87
2023-04-28T22:35:07.424Z,68.96
2023-04-28T22:37:35.496Z,68.97
2023-04-28T22:40:04.660Z,68.56
2023-04-28T22:42:32.471Z,69.34
2023-04-28T22:45:02.586Z,69.25
2023-04-28T22:47:32.794Z,69.03
2023-04-28T22:50:00.583Z,69.12
2023-04-28T22:52:28.634Z,68.88
2023-04-28T22:54:56.688Z,69.18
2023-04-28T22:57:24.485Z,68.70
2023-04-28T22:59:52.597Z,68.75
2023-04-28T23:02:21.024Z,68.07
2023-04-28T23:04:50.571Z,68.32
2023-04-28T23:07:18.462Z,68.59
2023-04-28T23:09:46.181Z,68.78
2023-04-28T23:12:13.847Z,69.24
2023-04-28T23:14:41.616Z,69.03
2023-04-28T23:17:09.375Z,69.07
2023-04-28T23:19:38.900Z,69.28
2023-04-28T23:22:08.505Z,69.50
2023-04-28T23:24:37.081Z,69.51
2023-04-28T23:27:05.322Z,69.53
2023-04-28T23:29:33.522Z,69.65
2023-04-28T23:32:01.294Z,69.17
2023-04-28T23:34:31.102Z,69.42
2023-04-28T23:37:00.374Z,69.40
2023-04-28T23:39:30.118Z,69.23
2023-04-28T23:41:58.638Z,68.96
2023-04-28T23:44:26.394Z,69.20
2023-04-28T23:46:56.010Z,68.84
2023-04-28T23:49:23.970Z,69.13
2023-04-28T23:51:51.660Z,69.01
2023-04-28T23:54:19.358Z,69.06
2023-04-28T23:56:48.396Z,69.23
2023-04-28T23:59:16.098Z,69.03
